Miller

About
Name: Miller
Identifier:  VTN/KVTN
Local Time:  19. Aug 20:08 CDT
Location
Flights per Day
0 flights
Distance: 237km (147mi)
Punctuality
50% (0 flights per day delayed)
Delay Average: 294 minutes
Current Weather
 32 C (Humidity: 55%)
  15kt (27km/h / 17mph) from 190°
  16km (10 mi.)
 
 METAR KVTN 192352Z AUTO 19015KT 10SM CLR 32/22 A2987 RMK AO2 SLP090 T03170217 10322 20256 56006

Current Flights

Departures
Number Departure To Airline
Arrivals
Number Arrival From Airline

Current Delays

Departures
N/A
Arrivals
N/A

Destinations

Top Destinations
Airport Flights
per week
Seats
per week
  Sioux Falls (FSD) 4 - 0 0
  Denver (QQH) 1 - 0 0
  Lincoln (LNK) 1 - 0 0
  Omaha (MIQ) 1 - 0 0
  Omaha (OMA) 1 - 0 0
  Kearney (EAR) 0 - 0 0
  Scottsbluff (BFF) 0 - 0 0
  Rapid City (RAP) 0 - 0 0
  Council Bluffs (CBF) 0 - 0 0
  Yankton (YKN) 0 - 0 0
  Lexington (LXN) 0 - 0 0
  Kansas City (MKC) 0 - 0 0

Airlines & Planes

Top Airlines
Airline Flights
per Day
Seats
per Day
Nordwind Airlines 0 -
Sioux Falls Aviation 0 -
  National Airlines 0 -
  Nolinor Aviation 0 -
Silverhawk Aviation 0 -
  Novair 0 -
Jet Linx Aviation 0 -
Jet Charter Inc ( Franklin Lakes Nj ) 0 -
  Flybe Nordic 0 -
Top Plane Types
Model Flights Seats
Cessna C402 0.7/day - 0
Beech E90 King Air 0.4/day - 0
Pilatus PC-12 0.3/day - 0
Beech G36 Bonanza 0.2/day - 0
Cessna C340 0.1/day - 0
Beech B200 Super King Air 0.1/day - 0